Weather at Quiché Airport

Public forecast

Using degrees Celsius for public forecast. Weather courtesy of forecast.io.

Closest aviation weather report (METAR) to Quiché Airport

Report is more than 6 hours old.

Closest report is Quezaltenango Airport, 22.2 nm (41.1 km) WSW.

2024/06/22 00:00 (retrieved 6 hours ago)

MGQZ 220000Z 23008KT 9999 SCT012 SCT200 15/13 QFE 770/7

Closest aviation forecast (TAF) to Quiché Airport

Closest forecast is La Aurora Airport, 44.4 nm (82.2 km) SE.

2024/06/22 06:04 (retrieved 6 minutes ago)

TAF MGGT 220500Z 2206/2306 18006KT 5000 DZ BR OVC010 TX23/2220Z TN16/2212Z TEMPO 2206/2212 3000 BR BKN012 BECMG 2214/2216 BKN014 BKN080 TEMPO 2218/2300 18012KT 6000 RADZ BKN012 OVC080 TEMPO 2302/2308 5000 DZ BR BKN010